createdAt,value
2019-06-20T00:01:26.209Z,21.20
2019-06-20T00:03:53.208Z,21.21
2019-06-20T00:06:20.212Z,21.21
2019-06-20T00:08:47.190Z,21.21
2019-06-20T00:11:14.177Z,21.21
2019-06-20T00:13:41.209Z,21.22
2019-06-20T00:16:08.188Z,21.21
2019-06-20T00:18:35.238Z,21.18
2019-06-20T00:21:02.244Z,21.18
2019-06-20T00:23:29.226Z,21.21
2019-06-20T00:25:56.246Z,21.22
2019-06-20T00:28:23.242Z,21.22
2019-06-20T00:30:50.229Z,21.23
2019-06-20T00:33:17.184Z,21.25
2019-06-20T00:35:44.208Z,21.26
2019-06-20T00:38:11.184Z,21.22
2019-06-20T00:40:38.163Z,21.13
2019-06-20T00:43:16.971Z,21.09
2019-06-20T00:45:34.202Z,21.00
2019-06-20T00:48:01.228Z,20.87
2019-06-20T00:50:28.288Z,20.60
2019-06-20T00:52:55.247Z,20.63
2019-06-20T00:55:22.394Z,20.40
2019-06-20T00:57:49.343Z,20.28
2019-06-20T01:00:17.514Z,20.09
2019-06-20T01:02:44.497Z,20.15
2019-06-20T01:05:11.759Z,20.14
2019-06-20T01:07:38.707Z,20.05
2019-06-20T01:10:06.335Z,20.05
2019-06-20T01:12:33.290Z,20.11
2019-06-20T01:15:00.230Z,20.09
2019-06-20T01:17:27.196Z,20.02
2019-06-20T01:19:54.260Z,19.98
2019-06-20T01:22:21.224Z,19.96
2019-06-20T01:24:48.224Z,20.01
2019-06-20T01:27:15.174Z,19.98
2019-06-20T01:29:42.239Z,19.97
2019-06-20T01:32:10.704Z,19.98
2019-06-20T01:34:37.685Z,20.00
2019-06-20T01:37:04.638Z,20.00
2019-06-20T01:39:33.888Z,20.05
2019-06-20T01:42:00.859Z,20.06
2019-06-20T01:44:27.865Z,20.04
2019-06-20T01:46:55.955Z,20.06
2019-06-20T01:49:22.954Z,20.06
2019-06-20T01:51:49.944Z,20.08
2019-06-20T01:54:16.932Z,20.01
2019-06-20T01:56:43.934Z,20.04
2019-06-20T01:59:10.935Z,19.99
2019-06-20T02:01:37.966Z,20.01
2019-06-20T02:04:04.975Z,20.00
2019-06-20T02:06:31.969Z,19.90
2019-06-20T02:08:58.978Z,19.88
2019-06-20T02:11:26.000Z,19.91
2019-06-20T02:14:06.479Z,19.86
2019-06-20T02:16:21.887Z,19.88
2019-06-20T02:18:48.958Z,19.79
2019-06-20T02:21:15.956Z,19.80
2019-06-20T02:23:42.927Z,19.78
2019-06-20T02:26:09.945Z,19.80
2019-06-20T02:28:36.915Z,19.80
2019-06-20T02:31:04.015Z,19.78
2019-06-20T02:33:31.021Z,19.74
2019-06-20T02:35:57.981Z,19.76
2019-06-20T02:38:24.972Z,19.67
2019-06-20T02:40:51.950Z,19.63
2019-06-20T02:43:18.934Z,19.63
2019-06-20T02:45:46.026Z,19.61
2019-06-20T02:48:13.028Z,19.55
2019-06-20T02:50:40.045Z,19.48
2019-06-20T02:53:07.107Z,19.50
2019-06-20T02:55:34.087Z,19.52
2019-06-20T02:58:01.082Z,19.46
2019-06-20T03:00:41.744Z,19.45
2019-06-20T03:03:08.742Z,19.45
2019-06-20T03:05:35.696Z,19.32
2019-06-20T03:08:02.828Z,19.18
2019-06-20T03:10:32.853Z,19.12
2019-06-20T03:12:59.871Z,19.09
2019-06-20T03:15:26.842Z,19.06
2019-06-20T03:17:53.868Z,19.09
2019-06-20T03:20:20.866Z,19.03
2019-06-20T03:22:47.868Z,19.02
2019-06-20T03:25:16.814Z,19.02
2019-06-20T03:27:43.835Z,19.01
2019-06-20T03:30:10.992Z,19.01
2019-06-20T03:32:37.973Z,19.05
2019-06-20T03:35:05.105Z,19.03
2019-06-20T03:37:32.074Z,19.05
2019-06-20T03:39:59.060Z,19.09
2019-06-20T03:42:26.028Z,19.10
2019-06-20T03:45:02.267Z,19.02
2019-06-20T03:47:21.946Z,19.00
2019-06-20T03:49:48.882Z,19.02
2019-06-20T03:52:15.909Z,19.00
2019-06-20T03:54:42.957Z,18.97
2019-06-20T03:57:09.979Z,19.01
2019-06-20T03:59:36.947Z,19.00
2019-06-20T04:02:03.908Z,18.92
2019-06-20T04:04:30.869Z,18.91
2019-06-20T04:06:57.855Z,18.91
2019-06-20T04:09:24.857Z,18.89
2019-06-20T04:11:51.884Z,18.85
2019-06-20T04:14:18.914Z,18.87
2019-06-20T04:16:48.911Z,18.90
2019-06-20T04:19:15.959Z,18.90
2019-06-20T04:21:42.974Z,18.90
2019-06-20T04:24:09.939Z,18.95
2019-06-20T04:26:38.190Z,19.01
2019-06-20T04:29:05.221Z,18.96
2019-06-20T04:31:32.229Z,18.95
2019-06-20T04:33:59.192Z,18.93
2019-06-20T04:36:26.241Z,18.95
2019-06-20T04:38:53.203Z,18.95
2019-06-20T04:41:20.172Z,18.91
2019-06-20T04:43:47.173Z,18.91
2019-06-20T04:46:25.672Z,18.91
2019-06-20T04:48:53.042Z,18.91
2019-06-20T04:51:20.034Z,18.87
2019-06-20T04:53:47.010Z,18.81
2019-06-20T04:56:13.984Z,18.73
2019-06-20T04:58:40.988Z,18.77
2019-06-20T05:01:10.100Z,18.78
2019-06-20T05:03:37.032Z,18.77
2019-06-20T05:06:04.048Z,18.79
2019-06-20T05:08:31.001Z,18.77
2019-06-20T05:10:57.972Z,18.76
2019-06-20T05:13:24.977Z,18.81
2019-06-20T05:15:53.403Z,18.88
2019-06-20T05:18:20.531Z,18.86
2019-06-20T05:20:47.549Z,18.86
2019-06-20T05:23:14.604Z,18.89
2019-06-20T05:25:41.647Z,18.95
2019-06-20T05:28:08.634Z,18.98
2019-06-20T05:30:35.637Z,19.07
2019-06-20T05:33:02.629Z,19.18
2019-06-20T05:35:30.856Z,19.26
2019-06-20T05:37:57.876Z,19.31
2019-06-20T05:40:24.852Z,19.29
2019-06-20T05:42:52.051Z,19.39
2019-06-20T05:45:19.364Z,19.42
2019-06-20T05:47:46.332Z,19.46
2019-06-20T05:50:13.397Z,19.39
2019-06-20T05:52:40.396Z,19.37
2019-06-20T05:55:07.521Z,19.27
2019-06-20T05:57:36.847Z,19.24
2019-06-20T06:00:04.977Z,19.20
2019-06-20T06:02:31.911Z,19.05
2019-06-20T06:04:58.884Z,19.07
2019-06-20T06:07:25.860Z,19.07
2019-06-20T06:09:52.858Z,19.12
2019-06-20T06:12:22.582Z,19.16
2019-06-20T06:14:49.587Z,19.13
2019-06-20T06:17:16.552Z,19.17
2019-06-20T06:19:46.486Z,19.09
2019-06-20T06:22:14.012Z,19.12
2019-06-20T06:24:41.015Z,19.13
2019-06-20T06:27:07.994Z,19.21
2019-06-20T06:29:35.024Z,19.28
2019-06-20T06:32:02.067Z,19.22
2019-06-20T06:34:29.074Z,19.26
2019-06-20T06:36:56.081Z,19.22
2019-06-20T06:39:23.130Z,19.21
2019-06-20T06:41:50.135Z,19.17
2019-06-20T06:44:17.103Z,19.27
2019-06-20T06:46:52.113Z,19.43
2019-06-20T06:49:12.970Z,19.47
2019-06-20T06:51:39.915Z,19.46
2019-06-20T06:54:07.021Z,19.49
2019-06-20T06:56:34.011Z,19.50
2019-06-20T06:59:01.005Z,19.45
2019-06-20T07:01:28.016Z,19.43
2019-06-20T07:03:55.357Z,19.53
2019-06-20T07:06:22.344Z,19.49
2019-06-20T07:08:49.336Z,19.53
2019-06-20T07:11:16.309Z,19.51
2019-06-20T07:13:43.302Z,19.70
2019-06-20T07:16:10.362Z,19.73
2019-06-20T07:18:40.352Z,19.84
2019-06-20T07:21:07.386Z,19.80
2019-06-20T07:23:34.371Z,19.78
2019-06-20T07:26:03.489Z,19.89
2019-06-20T07:28:30.500Z,19.84
2019-06-20T07:30:57.486Z,19.91
2019-06-20T07:33:24.473Z,19.92
2019-06-20T07:35:51.460Z,19.85
2019-06-20T07:38:18.496Z,20.01
2019-06-20T07:40:45.544Z,20.08
2019-06-20T07:43:12.517Z,19.97
2019-06-20T07:45:39.523Z,20.11
2019-06-20T07:48:06.493Z,20.17
2019-06-20T07:50:33.513Z,20.22
2019-06-20T07:53:03.360Z,20.35
2019-06-20T07:55:33.670Z,20.32
2019-06-20T07:58:00.675Z,20.35
2019-06-20T08:00:28.143Z,20.42
2019-06-20T08:02:56.251Z,20.44
2019-06-20T08:05:23.204Z,20.53
2019-06-20T08:07:50.282Z,20.70
2019-06-20T08:10:17.508Z,20.69
2019-06-20T08:12:44.559Z,20.72
2019-06-20T08:15:15.554Z,20.70
2019-06-20T08:17:42.690Z,20.72
2019-06-20T08:20:10.640Z,20.77
2019-06-20T08:22:39.984Z,20.93
2019-06-20T08:25:08.634Z,20.88
2019-06-20T08:27:51.307Z,20.91
2019-06-20T08:30:24.251Z,20.89
2019-06-20T08:32:51.314Z,20.82
2019-06-20T08:35:21.250Z,20.94
2019-06-20T08:37:48.282Z,20.94
2019-06-20T08:40:15.585Z,20.98
2019-06-20T08:42:52.032Z,21.00
2019-06-20T08:45:22.635Z,20.90
2019-06-20T08:47:49.670Z,21.00
2019-06-20T08:50:16.773Z,21.06
2019-06-20T08:52:43.817Z,21.04
2019-06-20T08:55:11.526Z,21.04
2019-06-20T08:57:38.506Z,20.96
2019-06-20T09:02:33.055Z,20.91
2019-06-20T09:05:00.258Z,20.96
2019-06-20T09:07:27.356Z,20.92
2019-06-20T09:09:55.822Z,20.91
2019-06-20T09:12:22.965Z,20.80
2019-06-20T09:14:49.972Z,20.96
2019-06-20T09:17:20.896Z,21.08
2019-06-20T09:19:47.920Z,21.09
2019-06-20T09:22:14.926Z,21.27
2019-06-20T09:24:42.120Z,21.27
2019-06-20T09:27:09.119Z,21.31
2019-06-20T09:29:41.801Z,21.25
2019-06-20T09:32:05.024Z,21.28
2019-06-20T09:34:32.010Z,21.13
2019-06-20T09:36:59.424Z,21.21
2019-06-20T09:39:26.471Z,21.28
2019-06-20T09:41:54.510Z,21.32
2019-06-20T09:44:21.497Z,21.44
2019-06-20T09:46:50.655Z,21.54
2019-06-20T09:49:17.397Z,21.60
2019-06-20T09:51:45.610Z,21.72
2019-06-20T09:54:12.597Z,21.82
2019-06-20T09:56:39.572Z,21.91
2019-06-20T09:59:06.615Z,21.91
2019-06-20T10:01:42.687Z,21.99
2019-06-20T10:04:09.645Z,22.01
2019-06-20T10:06:37.453Z,21.98
2019-06-20T10:09:06.116Z,22.04
2019-06-20T10:11:33.112Z,22.08
2019-06-20T10:14:00.079Z,22.08
2019-06-20T10:16:27.060Z,22.07
2019-06-20T10:18:54.373Z,21.99
2019-06-20T10:21:21.434Z,21.94
2019-06-20T10:23:49.612Z,21.97
2019-06-20T10:26:16.700Z,21.98
2019-06-20T10:28:47.654Z,21.98
2019-06-20T10:31:15.483Z,21.93
2019-06-20T10:33:42.463Z,21.88
2019-06-20T10:36:09.446Z,21.87
2019-06-20T10:38:36.415Z,21.71
2019-06-20T10:41:03.381Z,21.71
2019-06-20T10:43:30.374Z,21.56
2019-06-20T10:45:57.333Z,21.53
2019-06-20T10:48:26.350Z,21.48
2019-06-20T10:50:55.957Z,21.19
2019-06-20T10:53:22.924Z,21.08
2019-06-20T10:55:51.100Z,20.92
2019-06-20T10:58:18.227Z,21.01
2019-06-20T11:00:46.153Z,20.94
2019-06-20T11:03:13.220Z,20.87
2019-06-20T11:05:42.316Z,20.88
2019-06-20T11:08:10.444Z,20.86
2019-06-20T11:10:38.677Z,20.67
2019-06-20T11:13:06.948Z,20.69
2019-06-20T11:15:34.006Z,20.58
2019-06-20T11:18:03.850Z,20.64
2019-06-20T11:20:30.968Z,20.78
2019-06-20T11:22:58.022Z,20.71
2019-06-20T11:25:24.976Z,20.53
2019-06-20T11:27:51.961Z,20.56
2019-06-20T11:30:19.287Z,20.60
2019-06-20T11:32:49.009Z,20.60
2019-06-20T11:35:16.393Z,20.51
2019-06-20T11:37:44.720Z,20.44
2019-06-20T11:40:12.379Z,20.45
2019-06-20T11:42:44.628Z,20.50
2019-06-20T11:45:12.241Z,20.46
2019-06-20T11:47:40.392Z,20.48
2019-06-20T11:50:09.368Z,20.56
2019-06-20T11:52:41.043Z,20.51
2019-06-20T11:55:06.472Z,20.46
2019-06-20T11:57:33.441Z,20.25
2019-06-20T12:00:00.446Z,20.07
2019-06-20T12:02:27.422Z,19.98
2019-06-20T12:04:54.376Z,19.69
2019-06-20T12:07:21.351Z,19.67
2019-06-20T12:09:49.161Z,19.81
2019-06-20T12:12:16.214Z,19.79
2019-06-20T12:14:44.269Z,19.36
2019-06-20T12:17:11.355Z,19.17
2019-06-20T12:19:39.797Z,19.22
2019-06-20T12:22:07.302Z,19.17
2019-06-20T12:24:34.273Z,19.29
2019-06-20T12:27:03.843Z,19.10
2019-06-20T12:29:30.816Z,19.16
2019-06-20T12:31:59.154Z,19.14
2019-06-20T12:34:26.188Z,19.19
2019-06-20T12:36:53.182Z,19.14
2019-06-20T12:39:20.176Z,19.38
2019-06-20T12:41:50.285Z,19.28
2019-06-20T12:44:17.374Z,19.21
2019-06-20T12:46:44.817Z,18.96
2019-06-20T12:49:11.929Z,18.99
2019-06-20T12:51:40.399Z,18.97
2019-06-20T12:54:07.485Z,19.07
2019-06-20T12:56:34.516Z,19.07
2019-06-20T12:59:01.533Z,19.14
2019-06-20T13:01:36.848Z,19.28
2019-06-20T13:03:57.440Z,19.37
2019-06-20T13:06:24.442Z,19.37
2019-06-20T13:08:51.470Z,19.37
2019-06-20T13:11:18.460Z,19.09
2019-06-20T13:13:46.581Z,19.21
2019-06-20T13:16:13.680Z,19.10
2019-06-20T13:18:41.412Z,19.12
2019-06-20T13:21:09.718Z,19.15
2019-06-20T13:23:36.704Z,19.20
2019-06-20T13:26:03.736Z,19.35
2019-06-20T13:28:31.783Z,19.28
2019-06-20T13:30:58.772Z,19.32
2019-06-20T13:33:25.758Z,19.13
2019-06-20T13:35:52.812Z,19.05
2019-06-20T13:38:19.810Z,19.18
2019-06-20T13:40:47.227Z,19.15
2019-06-20T13:43:14.416Z,19.30
2019-06-20T13:45:42.346Z,19.32
2019-06-20T13:48:09.353Z,19.18
2019-06-20T13:50:40.421Z,19.30
2019-06-20T13:53:07.948Z,19.47
2019-06-20T13:55:34.980Z,19.62
2019-06-20T13:58:02.080Z,19.53
2019-06-20T14:00:29.568Z,19.65
2019-06-20T14:02:56.579Z,19.45
2019-06-20T14:05:28.267Z,19.69
2019-06-20T14:07:58.248Z,19.58
2019-06-20T14:10:29.746Z,19.69
2019-06-20T14:12:56.738Z,19.62
2019-06-20T14:15:23.776Z,19.69
2019-06-20T14:17:50.886Z,19.78
2019-06-20T14:20:19.411Z,19.90
2019-06-20T14:22:46.446Z,19.67
2019-06-20T14:25:14.048Z,19.52
2019-06-20T14:27:42.338Z,19.63
2019-06-20T14:30:12.642Z,19.71
2019-06-20T14:32:39.670Z,19.74
2019-06-20T14:35:07.207Z,19.77
2019-06-20T14:37:34.278Z,19.46
2019-06-20T14:40:06.105Z,19.63
2019-06-20T14:42:33.114Z,19.83
2019-06-20T14:45:00.095Z,19.89
2019-06-20T14:47:27.078Z,19.86
2019-06-20T14:49:54.093Z,19.84
2019-06-20T14:52:21.073Z,19.66
2019-06-20T14:54:51.706Z,19.66
2019-06-20T14:57:20.650Z,19.70
2019-06-20T14:59:48.388Z,19.41
2019-06-20T15:02:16.515Z,19.37
2019-06-20T15:04:44.973Z,19.36
2019-06-20T15:07:12.622Z,19.27
2019-06-20T15:09:39.712Z,19.39
2019-06-20T15:12:06.705Z,19.52
2019-06-20T15:14:36.678Z,19.52
2019-06-20T15:17:03.680Z,19.57
2019-06-20T15:19:30.669Z,19.66
2019-06-20T15:21:57.870Z,19.41
2019-06-20T15:24:24.886Z,19.43
2019-06-20T15:26:52.429Z,19.44
2019-06-20T15:29:19.747Z,19.48
2019-06-20T15:31:47.688Z,19.52
2019-06-20T15:34:15.960Z,19.67
2019-06-20T15:36:48.154Z,19.59
2019-06-20T15:39:15.760Z,19.60
2019-06-20T15:41:42.732Z,19.53
2019-06-20T15:44:09.744Z,19.64
2019-06-20T15:46:36.717Z,19.59
2019-06-20T15:49:15.623Z,19.56
2019-06-20T15:51:32.624Z,19.58
2019-06-20T15:53:59.670Z,19.54
2019-06-20T15:56:26.670Z,19.52
2019-06-20T15:58:53.679Z,19.55
2019-06-20T16:01:22.154Z,19.63
2019-06-20T16:03:49.145Z,19.69
2019-06-20T16:06:16.133Z,19.84
2019-06-20T16:08:46.865Z,19.94
2019-06-20T16:11:13.924Z,19.91
2019-06-20T16:13:40.910Z,19.86
2019-06-20T16:16:07.937Z,19.87
2019-06-20T16:18:34.928Z,19.65
2019-06-20T16:21:03.711Z,19.83
2019-06-20T16:23:30.747Z,19.87
2019-06-20T16:25:58.887Z,19.73
2019-06-20T16:28:25.887Z,19.84
2019-06-20T16:31:08.005Z,19.83
2019-06-20T16:33:25.395Z,19.76
2019-06-20T16:35:50.706Z,19.78
2019-06-20T16:38:17.675Z,19.73
2019-06-20T16:40:45.798Z,19.51
2019-06-20T16:43:12.779Z,19.59
2019-06-20T16:45:39.821Z,19.83
2019-06-20T16:48:06.837Z,19.78
2019-06-20T16:50:33.825Z,19.73
2019-06-20T16:53:08.243Z,19.67
2019-06-20T16:55:35.255Z,19.75
2019-06-20T16:58:02.302Z,19.70
2019-06-20T17:00:34.171Z,19.45
2019-06-20T17:03:01.253Z,19.42
2019-06-20T17:05:29.415Z,19.49
2019-06-20T17:07:56.566Z,19.46
2019-06-20T17:10:23.638Z,19.51
2019-06-20T17:12:50.719Z,19.39
2019-06-20T17:15:17.896Z,19.25
2019-06-20T17:17:44.971Z,19.36
2019-06-20T17:20:13.576Z,19.50
2019-06-20T17:22:45.869Z,19.43
2019-06-20T17:25:13.776Z,19.51
2019-06-20T17:27:40.842Z,19.50
2019-06-20T17:30:09.832Z,19.48
2019-06-20T17:32:36.860Z,19.43
2019-06-20T17:35:06.611Z,19.34
2019-06-20T17:37:33.601Z,19.23
2019-06-20T17:40:00.580Z,19.39
2019-06-20T17:42:30.648Z,19.40
2019-06-20T17:45:01.649Z,19.28
2019-06-20T17:47:28.612Z,19.12
2019-06-20T17:49:58.025Z,19.19
2019-06-20T17:52:26.304Z,19.22
2019-06-20T17:54:53.333Z,19.20
2019-06-20T17:57:20.324Z,19.11
2019-06-20T17:59:47.304Z,19.21
2019-06-20T18:02:17.073Z,19.24
2019-06-20T18:04:44.075Z,19.18
2019-06-20T18:07:11.096Z,19.15
2019-06-20T18:09:41.171Z,19.15
2019-06-20T18:12:12.731Z,19.16
2019-06-20T18:14:39.720Z,19.13
2019-06-20T18:17:08.751Z,19.15
2019-06-20T18:19:40.739Z,19.18
2019-06-20T18:22:09.210Z,19.22
2019-06-20T18:24:36.226Z,19.05
2019-06-20T18:27:03.507Z,18.96
2019-06-20T18:29:31.714Z,19.07
2019-06-20T18:31:58.693Z,19.13
2019-06-20T18:34:30.216Z,19.13
2019-06-20T18:36:56.028Z,19.13
2019-06-20T18:39:23.015Z,19.10
2019-06-20T18:41:53.440Z,19.09
2019-06-20T18:44:20.494Z,19.08
2019-06-20T18:46:47.469Z,19.05
2019-06-20T18:49:14.509Z,19.09
2019-06-20T18:51:41.545Z,19.11
2019-06-20T18:54:08.543Z,19.16
2019-06-20T18:56:35.536Z,18.98
2019-06-20T18:59:02.553Z,18.99
2019-06-20T19:01:31.901Z,19.06
2019-06-20T19:04:02.753Z,19.04
2019-06-20T19:06:35.845Z,19.01
2019-06-20T19:08:58.617Z,19.11
2019-06-20T19:11:29.334Z,19.14
2019-06-20T19:13:57.427Z,19.12
2019-06-20T19:16:24.429Z,18.99
2019-06-20T19:18:51.413Z,19.06
2019-06-20T19:21:18.487Z,19.06
2019-06-20T19:23:46.326Z,19.09
2019-06-20T19:26:13.299Z,19.08
2019-06-20T19:28:40.306Z,19.08
2019-06-20T19:31:07.363Z,19.13
2019-06-20T19:33:34.334Z,19.16
2019-06-20T19:36:01.347Z,19.17
2019-06-20T19:38:48.313Z,19.20
2019-06-20T19:41:15.342Z,19.20
2019-06-20T19:43:42.361Z,19.21
2019-06-20T19:46:09.349Z,19.22
2019-06-20T19:48:36.953Z,19.24
2019-06-20T19:51:04.425Z,19.20
2019-06-20T19:53:31.764Z,19.15
2019-06-20T19:55:58.714Z,19.11
2019-06-20T19:58:25.741Z,19.07
2019-06-20T20:00:52.747Z,19.03
2019-06-20T20:03:21.669Z,19.03
2019-06-20T20:05:48.684Z,19.03
2019-06-20T20:08:18.333Z,19.03
2019-06-20T20:10:49.138Z,19.06
2019-06-20T20:13:16.293Z,19.08
2019-06-20T20:15:46.203Z,19.07
2019-06-20T20:18:13.872Z,19.06
2019-06-20T20:20:42.810Z,19.06
2019-06-20T20:23:09.861Z,19.05
2019-06-20T20:25:36.887Z,19.05
2019-06-20T20:28:04.012Z,19.02
2019-06-20T20:30:31.031Z,18.97
2019-06-20T20:32:58.027Z,18.95
2019-06-20T20:35:35.431Z,18.94
2019-06-20T20:38:01.569Z,18.94
2019-06-20T20:40:28.772Z,18.88
2019-06-20T20:42:55.749Z,18.86
2019-06-20T20:45:24.712Z,18.85
2019-06-20T20:47:51.699Z,18.84
2019-06-20T20:50:19.104Z,18.82
2019-06-20T20:52:46.364Z,18.80
2019-06-20T20:55:19.336Z,18.76
2019-06-20T20:57:46.374Z,18.73
2019-06-20T21:00:24.032Z,18.71
2019-06-20T21:02:51.215Z,18.69
2019-06-20T21:05:24.297Z,18.66
2019-06-20T21:07:51.667Z,18.62
2019-06-20T21:10:18.652Z,18.58
2019-06-20T21:12:50.121Z,18.54
2019-06-20T21:15:21.752Z,18.52
2019-06-20T21:17:48.721Z,18.46
2019-06-20T21:20:16.170Z,18.42
2019-06-20T21:22:46.118Z,18.40
2019-06-20T21:25:15.851Z,18.37
2019-06-20T21:27:42.858Z,18.34
2019-06-20T21:30:10.665Z,18.30
2019-06-20T21:32:37.656Z,18.27
2019-06-20T21:35:05.152Z,18.23
2019-06-20T21:37:32.161Z,18.20
2019-06-20T21:40:01.936Z,18.15
2019-06-20T21:42:28.885Z,18.10
2019-06-20T21:44:55.858Z,18.06
2019-06-20T21:47:22.894Z,18.03
2019-06-20T21:49:53.150Z,18.00
2019-06-20T21:52:20.170Z,17.96
2019-06-20T21:54:47.162Z,17.91
2019-06-20T21:57:14.162Z,17.87
2019-06-20T21:59:41.154Z,17.84
2019-06-20T22:02:08.353Z,17.80
2019-06-20T22:04:35.328Z,17.74
2019-06-20T22:07:02.423Z,17.72
2019-06-20T22:09:29.400Z,17.69
2019-06-20T22:11:56.366Z,17.65
2019-06-20T22:14:23.365Z,17.62
2019-06-20T22:16:52.749Z,17.56
2019-06-20T22:19:19.734Z,17.55
2019-06-20T22:21:46.720Z,17.53
2019-06-20T22:24:13.704Z,17.48
2019-06-20T22:26:40.723Z,17.37
2019-06-20T22:29:07.708Z,17.30
2019-06-20T22:31:34.676Z,17.23
2019-06-20T22:34:01.640Z,17.20
2019-06-20T22:36:39.672Z,17.14
2019-06-20T22:39:00.595Z,17.06
2019-06-20T22:41:30.521Z,17.01
2019-06-20T22:43:57.504Z,16.99
2019-06-20T22:46:24.460Z,16.97
2019-06-20T22:48:55.293Z,16.95
2019-06-20T22:51:22.330Z,16.92
2019-06-20T22:53:49.289Z,16.89
2019-06-20T22:56:19.035Z,16.86
2019-06-20T22:58:46.023Z,16.85
2019-06-20T23:01:13.008Z,16.84
2019-06-20T23:03:39.994Z,16.81
2019-06-20T23:06:09.081Z,16.79
2019-06-20T23:08:36.273Z,16.76
2019-06-20T23:11:03.380Z,16.73
2019-06-20T23:13:30.397Z,16.70
2019-06-20T23:15:57.378Z,16.64
2019-06-20T23:18:24.349Z,16.57
2019-06-20T23:21:03.973Z,16.53
2019-06-20T23:23:21.369Z,16.50
2019-06-20T23:25:51.546Z,16.49
2019-06-20T23:28:18.531Z,16.46
2019-06-20T23:30:45.761Z,16.46
2019-06-20T23:33:13.125Z,16.41
2019-06-20T23:35:40.104Z,16.37
2019-06-20T23:38:07.088Z,16.35
2019-06-20T23:40:34.115Z,16.33
2019-06-20T23:43:01.086Z,16.33
2019-06-20T23:45:28.095Z,16.32
2019-06-20T23:47:55.108Z,16.30
2019-06-20T23:50:22.103Z,16.28
2019-06-20T23:52:54.779Z,16.26
2019-06-20T23:55:21.784Z,16.19
2019-06-20T23:57:48.755Z,16.21
